sensor_id;sensor_type;location;lat;lon;timestamp;pressure;altitude;pressure_sealevel;temperature;humidity
61478;BME280;47345;52.334;10.392;2022-10-16T00:01:23;100392.53;;;14.17;86.53
61478;BME280;47345;52.334;10.392;2022-10-16T00:03:54;100390.88;;;14.15;86.40
61478;BME280;47345;52.334;10.392;2022-10-16T00:06:26;100391.73;;;14.12;86.32
61478;BME280;47345;52.334;10.392;2022-10-16T00:08:57;100390.14;;;14.09;86.22
61478;BME280;47345;52.334;10.392;2022-10-16T00:11:29;100389.55;;;14.07;86.05
61478;BME280;47345;52.334;10.392;2022-10-16T00:14:03;100394.73;;;14.06;86.10
61478;BME280;47345;52.334;10.392;2022-10-16T00:16:35;100396.48;;;14.02;85.90
61478;BME280;47345;52.334;10.392;2022-10-16T00:19:06;100392.55;;;13.99;86.07
61478;BME280;47345;52.334;10.392;2022-10-16T00:21:37;100391.29;;;13.97;86.07
61478;BME280;47345;52.334;10.392;2022-10-16T00:24:09;100394.84;;;13.94;86.06
61478;BME280;47345;52.334;10.392;2022-10-16T00:26:40;100405.44;;;13.91;86.22
61478;BME280;47345;52.334;10.392;2022-10-16T00:29:11;100396.86;;;13.88;86.24
61478;BME280;47345;52.334;10.392;2022-10-16T00:31:42;100396.23;;;13.85;86.21
61478;BME280;47345;52.334;10.392;2022-10-16T00:34:13;100404.14;;;13.82;86.31
61478;BME280;47345;52.334;10.392;2022-10-16T00:36:44;100407.58;;;13.79;86.36
61478;BME280;47345;52.334;10.392;2022-10-16T00:39:15;100407.85;;;13.77;86.51
61478;BME280;47345;52.334;10.392;2022-10-16T00:41:45;100415.16;;;13.74;86.56
61478;BME280;47345;52.334;10.392;2022-10-16T00:44:48;100414.94;;;13.72;86.85
61478;BME280;47345;52.334;10.392;2022-10-16T00:47:24;100415.21;;;13.70;86.95
61478;BME280;47345;52.334;10.392;2022-10-16T00:49:59;100420.88;;;13.68;87.08
61478;BME280;47345;52.334;10.392;2022-10-16T00:52:32;100425.34;;;13.66;87.38
61478;BME280;47345;52.334;10.392;2022-10-16T00:55:05;100425.88;;;13.65;87.45
61478;BME280;47345;52.334;10.392;2022-10-16T00:57:37;100434.11;;;13.63;87.80
61478;BME280;47345;52.334;10.392;2022-10-16T01:00:12;100432.95;;;13.63;88.00
61478;BME280;47345;52.334;10.392;2022-10-16T01:02:43;100426.47;;;13.62;88.14
61478;BME280;47345;52.334;10.392;2022-10-16T01:05:14;100425.55;;;13.61;88.31
61478;BME280;47345;52.334;10.392;2022-10-16T01:07:53;100432.70;;;13.61;88.55
61478;BME280;47345;52.334;10.392;2022-10-16T01:10:33;100443.13;;;13.60;88.71
61478;BME280;47345;52.334;10.392;2022-10-16T01:13:08;100445.27;;;13.61;88.93
61478;BME280;47345;52.334;10.392;2022-10-16T01:15:44;100434.88;;;13.60;88.91
61478;BME280;47345;52.334;10.392;2022-10-16T01:18:22;100435.80;;;13.60;88.90
61478;BME280;47345;52.334;10.392;2022-10-16T01:20:57;100441.00;;;13.60;89.04
61478;BME280;47345;52.334;10.392;2022-10-16T01:23:38;100434.34;;;13.59;88.93
61478;BME280;47345;52.334;10.392;2022-10-16T01:26:27;100435.02;;;13.58;88.91
61478;BME280;47345;52.334;10.392;2022-10-16T01:29:05;100437.20;;;13.57;89.14
61478;BME280;47345;52.334;10.392;2022-10-16T01:31:41;100432.52;;;13.56;89.19
61478;BME280;47345;52.334;10.392;2022-10-16T01:34:18;100429.57;;;13.55;89.27
61478;BME280;47345;52.334;10.392;2022-10-16T01:36:53;100429.66;;;13.54;89.22
61478;BME280;47345;52.334;10.392;2022-10-16T01:39:28;100432.55;;;13.53;89.16
61478;BME280;47345;52.334;10.392;2022-10-16T01:42:03;100436.30;;;13.52;89.27
61478;BME280;47345;52.334;10.392;2022-10-16T01:44:36;100441.33;;;13.51;89.43
61478;BME280;47345;52.334;10.392;2022-10-16T01:47:10;100439.44;;;13.48;89.45
61478;BME280;47345;52.334;10.392;2022-10-16T01:49:42;100438.58;;;13.49;89.54
61478;BME280;47345;52.334;10.392;2022-10-16T01:52:17;100447.52;;;13.48;89.42
61478;BME280;47345;52.334;10.392;2022-10-16T01:54:52;100446.39;;;13.47;89.55
61478;BME280;47345;52.334;10.392;2022-10-16T01:57:25;100444.21;;;13.46;89.52
61478;BME280;47345;52.334;10.392;2022-10-16T02:00:00;100445.41;;;13.43;89.56
61478;BME280;47345;52.334;10.392;2022-10-16T02:02:32;100453.55;;;13.43;89.72
61478;BME280;47345;52.334;10.392;2022-10-16T02:05:08;100464.40;;;13.43;89.78
61478;BME280;47345;52.334;10.392;2022-10-16T02:07:41;100463.05;;;13.43;89.89
61478;BME280;47345;52.334;10.392;2022-10-16T02:10:12;100455.73;;;13.43;89.83
61478;BME280;47345;52.334;10.392;2022-10-16T02:12:46;100451.34;;;13.43;89.75
61478;BME280;47345;52.334;10.392;2022-10-16T02:15:18;100457.80;;;13.44;89.94
61478;BME280;47345;52.334;10.392;2022-10-16T02:17:49;100461.96;;;13.46;89.93
61478;BME280;47345;52.334;10.392;2022-10-16T02:20:22;100466.13;;;13.47;89.92
61478;BME280;47345;52.334;10.392;2022-10-16T02:22:57;100469.23;;;13.51;89.83
61478;BME280;47345;52.334;10.392;2022-10-16T02:25:32;100469.70;;;13.51;89.81
61478;BME280;47345;52.334;10.392;2022-10-16T02:28:08;100475.30;;;13.53;89.74
61478;BME280;47345;52.334;10.392;2022-10-16T02:30:45;100483.36;;;13.54;89.74
61478;BME280;47345;52.334;10.392;2022-10-16T02:33:19;100480.48;;;13.55;89.71
61478;BME280;47345;52.334;10.392;2022-10-16T02:35:52;100484.30;;;13.56;89.80
61478;BME280;47345;52.334;10.392;2022-10-16T02:38:24;100489.48;;;13.57;89.73
61478;BME280;47345;52.334;10.392;2022-10-16T02:40:56;100491.00;;;13.58;89.77
61478;BME280;47345;52.334;10.392;2022-10-16T02:43:27;100492.79;;;13.60;89.67
61478;BME280;47345;52.334;10.392;2022-10-16T02:45:58;100495.44;;;13.61;89.71
61478;BME280;47345;52.334;10.392;2022-10-16T02:48:29;100495.02;;;13.61;89.63
61478;BME280;47345;52.334;10.392;2022-10-16T02:51:00;100490.73;;;13.60;89.47
61478;BME280;47345;52.334;10.392;2022-10-16T02:53:31;100488.16;;;13.59;89.46
61478;BME280;47345;52.334;10.392;2022-10-16T02:56:02;100490.92;;;13.57;89.42
61478;BME280;47345;52.334;10.392;2022-10-16T02:58:33;100490.31;;;13.55;89.45
61478;BME280;47345;52.334;10.392;2022-10-16T03:01:04;100490.80;;;13.53;89.31
61478;BME280;47345;52.334;10.392;2022-10-16T03:03:34;100497.11;;;13.51;89.45
61478;BME280;47345;52.334;10.392;2022-10-16T03:06:05;100499.77;;;13.48;89.45
61478;BME280;47345;52.334;10.392;2022-10-16T03:08:35;100497.11;;;13.45;89.36
61478;BME280;47345;52.334;10.392;2022-10-16T03:11:07;100490.61;;;13.42;89.45
61478;BME280;47345;52.334;10.392;2022-10-16T03:13:37;100487.11;;;13.40;89.41
61478;BME280;47345;52.334;10.392;2022-10-16T03:16:08;100485.13;;;13.37;89.43
61478;BME280;47345;52.334;10.392;2022-10-16T03:18:39;100484.10;;;13.35;89.47
61478;BME280;47345;52.334;10.392;2022-10-16T03:21:10;100484.92;;;13.33;89.46
61478;BME280;47345;52.334;10.392;2022-10-16T03:23:41;100481.23;;;13.28;89.39
61478;BME280;47345;52.334;10.392;2022-10-16T03:26:12;100481.61;;;13.28;89.47
61478;BME280;47345;52.334;10.392;2022-10-16T03:28:43;100478.50;;;13.24;89.41
61478;BME280;47345;52.334;10.392;2022-10-16T03:31:14;100474.79;;;13.21;89.54
61478;BME280;47345;52.334;10.392;2022-10-16T03:33:45;100481.58;;;13.18;89.52
61478;BME280;47345;52.334;10.392;2022-10-16T03:36:15;100486.17;;;13.16;89.50
61478;BME280;47345;52.334;10.392;2022-10-16T03:38:45;100486.35;;;13.12;89.49
61478;BME280;47345;52.334;10.392;2022-10-16T03:41:16;100486.37;;;13.09;89.54
61478;BME280;47345;52.334;10.392;2022-10-16T03:43:47;100482.69;;;13.07;89.51
61478;BME280;47345;52.334;10.392;2022-10-16T03:46:17;100489.13;;;13.06;89.34
61478;BME280;47345;52.334;10.392;2022-10-16T03:48:48;100480.92;;;13.03;89.26
61478;BME280;47345;52.334;10.392;2022-10-16T03:51:18;100480.08;;;13.00;89.11
61478;BME280;47345;52.334;10.392;2022-10-16T03:53:48;100481.31;;;12.98;89.02
61478;BME280;47345;52.334;10.392;2022-10-16T03:56:19;100483.73;;;12.96;89.09
61478;BME280;47345;52.334;10.392;2022-10-16T03:58:50;100491.52;;;12.93;88.91
61478;BME280;47345;52.334;10.392;2022-10-16T04:01:20;100492.46;;;12.92;88.88
61478;BME280;47345;52.334;10.392;2022-10-16T04:03:51;100490.89;;;12.89;88.90
61478;BME280;47345;52.334;10.392;2022-10-16T04:06:21;100498.46;;;12.87;88.99
61478;BME280;47345;52.334;10.392;2022-10-16T04:08:52;100488.90;;;12.85;88.95
61478;BME280;47345;52.334;10.392;2022-10-16T04:11:22;100490.88;;;12.81;89.01
61478;BME280;47345;52.334;10.392;2022-10-16T04:13:53;100493.99;;;12.79;89.07
61478;BME280;47345;52.334;10.392;2022-10-16T04:16:24;100497.80;;;12.78;89.20
61478;BME280;47345;52.334;10.392;2022-10-16T04:18:55;100498.41;;;12.76;89.23
61478;BME280;47345;52.334;10.392;2022-10-16T04:21:26;100499.07;;;12.74;89.12
61478;BME280;47345;52.334;10.392;2022-10-16T04:23:56;100499.34;;;12.72;89.12
61478;BME280;47345;52.334;10.392;2022-10-16T04:26:27;100498.66;;;12.69;88.97
61478;BME280;47345;52.334;10.392;2022-10-16T04:28:58;100495.09;;;12.67;89.06
61478;BME280;47345;52.334;10.392;2022-10-16T04:31:29;100503.85;;;12.65;88.96
61478;BME280;47345;52.334;10.392;2022-10-16T04:34:00;100502.70;;;12.63;88.98
61478;BME280;47345;52.334;10.392;2022-10-16T04:36:30;100501.20;;;12.61;88.87
61478;BME280;47345;52.334;10.392;2022-10-16T04:39:01;100501.73;;;12.59;88.88
61478;BME280;47345;52.334;10.392;2022-10-16T04:41:32;100506.43;;;12.56;89.17
61478;BME280;47345;52.334;10.392;2022-10-16T04:44:03;100512.86;;;12.55;89.54
61478;BME280;47345;52.334;10.392;2022-10-16T04:46:34;100508.83;;;12.54;89.97
61478;BME280;47345;52.334;10.392;2022-10-16T04:49:05;100510.73;;;12.53;90.36
61478;BME280;47345;52.334;10.392;2022-10-16T04:51:35;100508.38;;;12.53;90.56
61478;BME280;47345;52.334;10.392;2022-10-16T04:54:06;100511.20;;;12.52;90.80
61478;BME280;47345;52.334;10.392;2022-10-16T04:56:37;100518.02;;;12.51;90.93
61478;BME280;47345;52.334;10.392;2022-10-16T04:59:16;100518.54;;;12.54;91.10
61478;BME280;47345;52.334;10.392;2022-10-16T05:01:48;100510.77;;;12.54;91.21
61478;BME280;47345;52.334;10.392;2022-10-16T05:04:19;100506.95;;;12.55;91.26
61478;BME280;47345;52.334;10.392;2022-10-16T05:06:49;100506.96;;;12.55;91.27
61478;BME280;47345;52.334;10.392;2022-10-16T05:09:20;100515.09;;;12.56;91.43
61478;BME280;47345;52.334;10.392;2022-10-16T05:11:52;100522.30;;;12.57;91.41
61478;BME280;47345;52.334;10.392;2022-10-16T05:14:22;100523.92;;;12.56;91.39
61478;BME280;47345;52.334;10.392;2022-10-16T05:16:53;100529.63;;;12.56;91.28
61478;BME280;47345;52.334;10.392;2022-10-16T05:19:24;100538.63;;;12.54;91.30
61478;BME280;47345;52.334;10.392;2022-10-16T05:21:57;100544.25;;;12.53;91.26
61478;BME280;47345;52.334;10.392;2022-10-16T05:24:28;100551.02;;;12.52;91.44
61478;BME280;47345;52.334;10.392;2022-10-16T05:27:00;100551.52;;;12.52;91.72
61478;BME280;47345;52.334;10.392;2022-10-16T05:29:31;100553.71;;;12.52;91.94
61478;BME280;47345;52.334;10.392;2022-10-16T05:32:02;100554.63;;;12.53;92.16
61478;BME280;47345;52.334;10.392;2022-10-16T05:34:33;100542.98;;;12.54;92.33
61478;BME280;47345;52.334;10.392;2022-10-16T05:37:03;100546.29;;;12.57;92.42
61478;BME280;47345;52.334;10.392;2022-10-16T05:39:34;100552.09;;;12.58;92.54
61478;BME280;47345;52.334;10.392;2022-10-16T05:42:06;100562.42;;;12.60;92.43
61478;BME280;47345;52.334;10.392;2022-10-16T05:44:36;100565.08;;;12.61;92.29
61478;BME280;47345;52.334;10.392;2022-10-16T05:47:08;100567.20;;;12.60;92.40
61478;BME280;47345;52.334;10.392;2022-10-16T05:49:40;100569.55;;;12.60;92.32
61478;BME280;47345;52.334;10.392;2022-10-16T05:52:11;100570.36;;;12.60;92.35
61478;BME280;47345;52.334;10.392;2022-10-16T05:54:42;100572.10;;;12.59;92.41
61478;BME280;47345;52.334;10.392;2022-10-16T05:57:13;100572.02;;;12.58;92.49
61478;BME280;47345;52.334;10.392;2022-10-16T05:59:43;100581.44;;;12.58;92.56
61478;BME280;47345;52.334;10.392;2022-10-16T06:02:15;100578.52;;;12.56;92.55
61478;BME280;47345;52.334;10.392;2022-10-16T06:04:46;100585.35;;;12.53;92.66
61478;BME280;47345;52.334;10.392;2022-10-16T06:07:17;100585.23;;;12.52;92.87
61478;BME280;47345;52.334;10.392;2022-10-16T06:09:50;100593.28;;;12.50;92.97
61478;BME280;47345;52.334;10.392;2022-10-16T06:12:21;100589.86;;;12.50;93.29
61478;BME280;47345;52.334;10.392;2022-10-16T06:14:51;100588.67;;;12.51;93.31
61478;BME280;47345;52.334;10.392;2022-10-16T06:17:22;100604.36;;;12.51;93.36
61478;BME280;47345;52.334;10.392;2022-10-16T06:19:53;100609.73;;;12.52;93.40
61478;BME280;47345;52.334;10.392;2022-10-16T06:22:24;100602.98;;;12.52;93.56
61478;BME280;47345;52.334;10.392;2022-10-16T06:24:54;100602.63;;;12.53;93.54
61478;BME280;47345;52.334;10.392;2022-10-16T06:27:25;100600.77;;;12.53;93.63
61478;BME280;47345;52.334;10.392;2022-10-16T06:29:56;100601.81;;;12.54;93.73
61478;BME280;47345;52.334;10.392;2022-10-16T06:32:27;100596.95;;;12.55;93.69
61478;BME280;47345;52.334;10.392;2022-10-16T06:34:57;100597.02;;;12.58;93.72
61478;BME280;47345;52.334;10.392;2022-10-16T06:37:28;100609.38;;;12.60;93.73
61478;BME280;47345;52.334;10.392;2022-10-16T06:39:58;100618.22;;;12.61;93.77
61478;BME280;47345;52.334;10.392;2022-10-16T06:42:29;100632.46;;;12.64;93.90
61478;BME280;47345;52.334;10.392;2022-10-16T06:44:59;100627.73;;;12.65;94.04
61478;BME280;47345;52.334;10.392;2022-10-16T06:47:30;100639.69;;;12.70;94.01
61478;BME280;47345;52.334;10.392;2022-10-16T06:50:01;100641.41;;;12.73;94.09
61478;BME280;47345;52.334;10.392;2022-10-16T06:52:33;100646.02;;;12.77;94.13
61478;BME280;47345;52.334;10.392;2022-10-16T06:55:04;100642.36;;;12.80;94.18
61478;BME280;47345;52.334;10.392;2022-10-16T06:57:35;100640.73;;;12.84;94.25
61478;BME280;47345;52.334;10.392;2022-10-16T07:00:07;100646.08;;;12.86;94.19
61478;BME280;47345;52.334;10.392;2022-10-16T07:02:38;100643.65;;;12.88;94.18
61478;BME280;47345;52.334;10.392;2022-10-16T07:05:09;100648.46;;;12.89;94.14
61478;BME280;47345;52.334;10.392;2022-10-16T07:07:40;100650.59;;;12.91;94.15
61478;BME280;47345;52.334;10.392;2022-10-16T07:10:11;100646.52;;;12.92;94.24
61478;BME280;47345;52.334;10.392;2022-10-16T07:12:41;100647.79;;;12.93;94.34
61478;BME280;47345;52.334;10.392;2022-10-16T07:15:14;100651.74;;;12.95;94.45
61478;BME280;47345;52.334;10.392;2022-10-16T07:17:45;100661.48;;;12.97;94.58
61478;BME280;47345;52.334;10.392;2022-10-16T07:20:15;100661.98;;;12.98;94.72
61478;BME280;47345;52.334;10.392;2022-10-16T07:22:46;100667.39;;;13.04;94.72
61478;BME280;47345;52.334;10.392;2022-10-16T07:25:17;100666.92;;;13.07;94.85
61478;BME280;47345;52.334;10.392;2022-10-16T07:27:47;100665.88;;;13.11;95.09
61478;BME280;47345;52.334;10.392;2022-10-16T07:30:18;100675.75;;;13.17;95.10
61478;BME280;47345;52.334;10.392;2022-10-16T07:32:48;100685.75;;;13.22;95.23
61478;BME280;47345;52.334;10.392;2022-10-16T07:35:19;100689.66;;;13.28;95.56
61478;BME280;47345;52.334;10.392;2022-10-16T07:37:50;100685.88;;;13.35;95.88
61478;BME280;47345;52.334;10.392;2022-10-16T07:40:21;100687.25;;;13.42;95.79
61478;BME280;47345;52.334;10.392;2022-10-16T07:42:52;100684.70;;;13.49;96.04
61478;BME280;47345;52.334;10.392;2022-10-16T07:45:25;100686.16;;;13.58;95.89
61478;BME280;47345;52.334;10.392;2022-10-16T07:47:56;100689.24;;;13.63;95.58
61478;BME280;47345;52.334;10.392;2022-10-16T07:50:28;100692.50;;;13.71;95.65
61478;BME280;47345;52.334;10.392;2022-10-16T07:52:59;100702.33;;;13.77;95.61
61478;BME280;47345;52.334;10.392;2022-10-16T07:55:31;100703.08;;;13.80;95.36
61478;BME280;47345;52.334;10.392;2022-10-16T07:58:02;100707.05;;;13.86;95.20
61478;BME280;47345;52.334;10.392;2022-10-16T08:00:37;100703.36;;;13.92;95.28
61478;BME280;47345;52.334;10.392;2022-10-16T08:03:09;100704.38;;;13.98;95.39
61478;BME280;47345;52.334;10.392;2022-10-16T08:05:41;100715.67;;;14.05;95.26
61478;BME280;47345;52.334;10.392;2022-10-16T08:08:15;100719.75;;;14.11;95.04
61478;BME280;47345;52.334;10.392;2022-10-16T08:10:48;100718.04;;;14.15;94.82
61478;BME280;47345;52.334;10.392;2022-10-16T08:13:21;100719.02;;;14.18;94.66
61478;BME280;47345;52.334;10.392;2022-10-16T08:15:55;100721.29;;;14.21;94.44
61478;BME280;47345;52.334;10.392;2022-10-16T08:18:26;100724.94;;;14.21;94.29
61478;BME280;47345;52.334;10.392;2022-10-16T08:21:00;100730.60;;;14.25;94.12
61478;BME280;47345;52.334;10.392;2022-10-16T08:23:31;100736.77;;;14.27;94.01
61478;BME280;47345;52.334;10.392;2022-10-16T08:26:06;100735.10;;;14.31;94.01
61478;BME280;47345;52.334;10.392;2022-10-16T08:28:37;100740.89;;;14.35;93.96
61478;BME280;47345;52.334;10.392;2022-10-16T08:31:10;100753.67;;;14.42;93.89
61478;BME280;47345;52.334;10.392;2022-10-16T08:33:43;100755.99;;;14.48;93.57
61478;BME280;47345;52.334;10.392;2022-10-16T08:36:15;100764.39;;;14.54;93.15
61478;BME280;47345;52.334;10.392;2022-10-16T08:38:48;100756.39;;;14.59;93.03
61478;BME280;47345;52.334;10.392;2022-10-16T08:41:41;100754.96;;;14.64;92.84
61478;BME280;47345;52.334;10.392;2022-10-16T08:44:48;100754.23;;;14.70;92.43
61478;BME280;47345;52.334;10.392;2022-10-16T08:47:30;100752.09;;;14.74;92.16
61478;BME280;47345;52.334;10.392;2022-10-16T08:50:11;100759.23;;;14.76;91.74
61478;BME280;47345;52.334;10.392;2022-10-16T08:52:44;100760.27;;;14.77;91.54
61478;BME280;47345;52.334;10.392;2022-10-16T08:55:32;100761.61;;;14.78;91.59
61478;BME280;47345;52.334;10.392;2022-10-16T08:58:12;100758.75;;;14.80;91.73
61478;BME280;47345;52.334;10.392;2022-10-16T09:00:45;100768.52;;;14.86;91.62
61478;BME280;47345;52.334;10.392;2022-10-16T09:03:22;100769.46;;;14.88;91.45
61478;BME280;47345;52.334;10.392;2022-10-16T09:06:17;100770.88;;;14.92;91.15
61478;BME280;47345;52.334;10.392;2022-10-16T09:09:04;100778.70;;;14.96;90.96
61478;BME280;47345;52.334;10.392;2022-10-16T09:11:48;100781.09;;;14.98;90.64
61478;BME280;47345;52.334;10.392;2022-10-16T09:14:40;100786.92;;;15.01;89.83
61478;BME280;47345;52.334;10.392;2022-10-16T09:17:27;100784.02;;;15.03;89.17
61478;BME280;47345;52.334;10.392;2022-10-16T09:20:10;100785.00;;;15.05;88.87
61478;BME280;47345;52.334;10.392;2022-10-16T09:22:43;100786.55;;;15.06;88.45
61478;BME280;47345;52.334;10.392;2022-10-16T09:25:15;100792.55;;;15.08;88.33
61478;BME280;47345;52.334;10.392;2022-10-16T09:27:48;100796.17;;;15.09;88.07
61478;BME280;47345;52.334;10.392;2022-10-16T09:30:21;100798.81;;;15.11;87.90
61478;BME280;47345;52.334;10.392;2022-10-16T09:32:53;100798.34;;;15.12;87.74
61478;BME280;47345;52.334;10.392;2022-10-16T09:35:31;100797.02;;;15.15;87.62
61478;BME280;47345;52.334;10.392;2022-10-16T09:38:01;100802.11;;;15.17;87.55
61478;BME280;47345;52.334;10.392;2022-10-16T09:40:33;100801.80;;;15.21;87.07
61478;BME280;47345;52.334;10.392;2022-10-16T09:43:12;100806.77;;;15.23;86.42
61478;BME280;47345;52.334;10.392;2022-10-16T09:45:56;100810.30;;;15.28;85.71
61478;BME280;47345;52.334;10.392;2022-10-16T09:48:30;100819.46;;;15.32;85.05
61478;BME280;47345;52.334;10.392;2022-10-16T09:51:03;100829.70;;;15.37;84.98
61478;BME280;47345;52.334;10.392;2022-10-16T09:53:42;100828.39;;;15.40;84.97
61478;BME280;47345;52.334;10.392;2022-10-16T09:56:22;100833.37;;;15.45;85.00
61478;BME280;47345;52.334;10.392;2022-10-16T09:58:55;100834.77;;;15.50;84.81
61478;BME280;47345;52.334;10.392;2022-10-16T10:01:31;100833.71;;;15.54;84.49
61478;BME280;47345;52.334;10.392;2022-10-16T10:04:06;100834.91;;;15.56;84.28
61478;BME280;47345;52.334;10.392;2022-10-16T10:06:40;100838.86;;;15.60;83.97
61478;BME280;47345;52.334;10.392;2022-10-16T10:09:21;100835.74;;;15.61;83.64
61478;BME280;47345;52.334;10.392;2022-10-16T10:11:55;100839.55;;;15.61;82.28
61478;BME280;47345;52.334;10.392;2022-10-16T10:14:34;100837.66;;;15.60;81.86
61478;BME280;47345;52.334;10.392;2022-10-16T10:17:19;100836.09;;;15.59;81.69
61478;BME280;47345;52.334;10.392;2022-10-16T10:19:55;100839.92;;;15.58;81.74
61478;BME280;47345;52.334;10.392;2022-10-16T10:22:31;100836.27;;;15.59;81.38
61478;BME280;47345;52.334;10.392;2022-10-16T10:25:36;100844.87;;;15.62;81.37
61478;BME280;47345;52.334;10.392;2022-10-16T10:28:21;100844.10;;;15.64;80.56
61478;BME280;47345;52.334;10.392;2022-10-16T10:31:03;100836.70;;;15.66;79.65
61478;BME280;47345;52.334;10.392;2022-10-16T10:33:38;100838.83;;;15.70;79.51
61478;BME280;47345;52.334;10.392;2022-10-16T10:36:23;100841.44;;;15.77;78.97
61478;BME280;47345;52.334;10.392;2022-10-16T10:38:59;100846.52;;;15.89;78.60
61478;BME280;47345;52.334;10.392;2022-10-16T10:41:48;100851.29;;;16.00;78.02
61478;BME280;47345;52.334;10.392;2022-10-16T10:44:30;100851.88;;;16.13;77.59
61478;BME280;47345;52.334;10.392;2022-10-16T10:47:10;100856.03;;;16.27;76.84
61478;BME280;47345;52.334;10.392;2022-10-16T10:49:55;100850.25;;;16.38;76.28
61478;BME280;47345;52.334;10.392;2022-10-16T10:52:43;100854.45;;;16.47;75.25
61478;BME280;47345;52.334;10.392;2022-10-16T10:55:23;100853.58;;;16.53;74.48
61478;BME280;47345;52.334;10.392;2022-10-16T10:58:07;100858.01;;;16.61;74.02
61478;BME280;47345;52.334;10.392;2022-10-16T11:00:51;100859.48;;;16.71;73.58
61478;BME280;47345;52.334;10.392;2022-10-16T11:03:35;100867.17;;;16.77;72.60
61478;BME280;47345;52.334;10.392;2022-10-16T11:06:13;100863.46;;;16.83;71.14
61478;BME280;47345;52.334;10.392;2022-10-16T11:08:50;100864.95;;;16.88;70.03
61478;BME280;47345;52.334;10.392;2022-10-16T11:11:32;100868.23;;;16.92;69.66
61478;BME280;47345;52.334;10.392;2022-10-16T11:14:09;100871.79;;;16.94;69.72
61478;BME280;47345;52.334;10.392;2022-10-16T11:16:50;100872.53;;;16.95;70.06
61478;BME280;47345;52.334;10.392;2022-10-16T11:19:32;100866.52;;;16.97;69.73
61478;BME280;47345;52.334;10.392;2022-10-16T11:22:11;100874.34;;;16.99;70.13
61478;BME280;47345;52.334;10.392;2022-10-16T11:24:47;100872.71;;;17.01;69.87
61478;BME280;47345;52.334;10.392;2022-10-16T11:27:22;100877.27;;;17.01;69.52
61478;BME280;47345;52.334;10.392;2022-10-16T11:29:59;100880.51;;;17.03;69.85
61478;BME280;47345;52.334;10.392;2022-10-16T11:32:37;100881.48;;;17.03;70.06
61478;BME280;47345;52.334;10.392;2022-10-16T11:35:17;100881.44;;;17.03;68.81
61478;BME280;47345;52.334;10.392;2022-10-16T11:37:51;100886.96;;;17.01;68.32
61478;BME280;47345;52.334;10.392;2022-10-16T11:40:28;100884.98;;;16.98;67.75
61478;BME280;47345;52.334;10.392;2022-10-16T11:43:04;100889.98;;;16.96;68.71
61478;BME280;47345;52.334;10.392;2022-10-16T11:45:42;100894.86;;;16.95;68.63
61478;BME280;47345;52.334;10.392;2022-10-16T11:48:21;100898.88;;;16.91;68.63
61478;BME280;47345;52.334;10.392;2022-10-16T11:50:56;100898.37;;;16.88;68.74
61478;BME280;47345;52.334;10.392;2022-10-16T11:53:42;100897.88;;;16.85;68.36
61478;BME280;47345;52.334;10.392;2022-10-16T11:56:19;100892.84;;;16.82;68.36
61478;BME280;47345;52.334;10.392;2022-10-16T11:58:56;100892.65;;;16.78;68.31
61478;BME280;47345;52.334;10.392;2022-10-16T12:01:33;100889.13;;;16.76;67.95
61478;BME280;47345;52.334;10.392;2022-10-16T12:04:23;100889.23;;;16.76;68.15
61478;BME280;47345;52.334;10.392;2022-10-16T12:07:02;100890.16;;;16.76;67.30
61478;BME280;47345;52.334;10.392;2022-10-16T12:09:38;100891.14;;;16.77;67.06
61478;BME280;47345;52.334;10.392;2022-10-16T12:12:25;100892.40;;;16.79;66.12
61478;BME280;47345;52.334;10.392;2022-10-16T12:15:20;100895.95;;;16.83;66.28
61478;BME280;47345;52.334;10.392;2022-10-16T12:18:22;100899.92;;;16.85;65.92
61478;BME280;47345;52.334;10.392;2022-10-16T12:20:58;100904.38;;;16.87;66.12
61478;BME280;47345;52.334;10.392;2022-10-16T12:23:36;100905.44;;;16.87;65.74
61478;BME280;47345;52.334;10.392;2022-10-16T12:26:07;100908.72;;;16.89;65.36
61478;BME280;47345;52.334;10.392;2022-10-16T12:28:38;100908.25;;;16.90;64.95
61478;BME280;47345;52.334;10.392;2022-10-16T12:31:10;100909.79;;;16.92;65.25
61478;BME280;47345;52.334;10.392;2022-10-16T12:33:43;100904.65;;;16.92;65.63
61478;BME280;47345;52.334;10.392;2022-10-16T12:36:30;100903.96;;;16.94;65.55
61478;BME280;47345;52.334;10.392;2022-10-16T12:39:02;100900.89;;;16.97;65.59
61478;BME280;47345;52.334;10.392;2022-10-16T12:41:35;100912.61;;;17.00;65.15
61478;BME280;47345;52.334;10.392;2022-10-16T12:44:24;100914.05;;;17.03;64.59
61478;BME280;47345;52.334;10.392;2022-10-16T12:46:55;100913.45;;;17.07;64.38
61478;BME280;47345;52.334;10.392;2022-10-16T12:49:35;100916.98;;;17.08;64.36
61478;BME280;47345;52.334;10.392;2022-10-16T12:52:25;100922.37;;;17.11;64.26
61478;BME280;47345;52.334;10.392;2022-10-16T12:54:58;100920.21;;;17.14;64.13
61478;BME280;47345;52.334;10.392;2022-10-16T12:57:44;100922.62;;;17.17;64.29
61478;BME280;47345;52.334;10.392;2022-10-16T13:00:26;100921.88;;;17.22;64.49
61478;BME280;47345;52.334;10.392;2022-10-16T13:03:26;100923.17;;;17.26;64.04
61478;BME280;47345;52.334;10.392;2022-10-16T13:06:06;100926.81;;;17.31;63.43
61478;BME280;47345;52.334;10.392;2022-10-16T13:11:46;100936.92;;;17.37;63.17
61478;BME280;47345;52.334;10.392;2022-10-16T13:14:39;100940.60;;;17.38;63.27
61478;BME280;47345;52.334;10.392;2022-10-16T13:17:19;100944.95;;;17.40;62.98
61478;BME280;47345;52.334;10.392;2022-10-16T13:19:59;100948.43;;;17.40;63.19
61478;BME280;47345;52.334;10.392;2022-10-16T13:22:38;100946.39;;;17.40;63.25